Aviation Digital Data Service (ADDS)

Output produced by METARs form (1330 UTC 24 August 2019)
found at http://www.aviationweather.gov/metar/data/
 
Forecast for: ZGNN (NANNING/WUXU , CN)
Text: TAF ZGNN 240907Z 2412/2512 06003MPS 7000 SCT030 TX35/2507Z TN26/2422Z
Forecast period: 1200 UTC 24 August 2019 to 1200 UTC 25 August 2019
Forecast type: FROM: standard forecast or significant change
Winds: from the ENE (60 degrees) at 7 MPH (6 knots; 3.1 m/s)
Visibility: 4 miles (7 km)
Ceiling: at least 12,000 feet AGL
Clouds: scattered clouds at 3000 feet AGL
Weather: no significant weather forecast for this period
Text: TEMPO 2505/2511 FEW026CB SCT030
Forecast period: 0500 to 1100 UTC 25 August 2019
Forecast type: TEMPORARY: The following changes expected for less than half the time period
Visibility: missing
Ceiling: at least 12,000 feet AGL
Clouds: few clouds at 2600 feet AGL
scattered clouds at 3000 feet AGL
Weather: no significant weather forecast for this period